createdAt,value
2023-06-10T00:00:01.627Z,15.10
2023-06-10T00:02:29.747Z,15.10
2023-06-10T00:04:58.589Z,15.00
2023-06-10T00:07:26.539Z,14.90
2023-06-10T00:09:54.383Z,15.00
2023-06-10T00:12:23.599Z,15.10
2023-06-10T00:14:52.742Z,15.10
2023-06-10T00:17:20.559Z,15.20
2023-06-10T00:19:48.476Z,15.00
2023-06-10T00:22:16.534Z,14.80
2023-06-10T00:24:44.415Z,14.70
2023-06-10T00:27:12.274Z,14.70
2023-06-10T00:29:41.434Z,14.50
2023-06-10T00:32:10.191Z,14.40
2023-06-10T00:34:38.047Z,14.30
2023-06-10T00:37:06.359Z,14.30
2023-06-10T00:39:34.176Z,14.20
2023-06-10T00:42:02.021Z,14.10
2023-06-10T00:44:29.935Z,14.10
2023-06-10T00:46:59.090Z,14.00
2023-06-10T00:49:27.289Z,14.00
2023-06-10T00:51:55.113Z,14.30
2023-06-10T00:54:23.179Z,14.30
2023-06-10T00:56:51.022Z,14.30
2023-06-10T00:59:19.441Z,14.50
2023-06-10T01:01:48.397Z,14.40
2023-06-10T01:04:18.305Z,14.50
2023-06-10T01:06:50.647Z,13.80
2023-06-10T01:09:23.884Z,13.90
2023-06-10T01:11:53.993Z,13.80
2023-06-10T01:14:21.880Z,13.70
2023-06-10T01:16:51.116Z,13.70
2023-06-10T01:19:20.325Z,13.60
2023-06-10T01:21:49.941Z,13.50
2023-06-10T01:24:19.269Z,13.50
2023-06-10T01:26:47.463Z,13.50
2023-06-10T01:29:18.685Z,13.60
2023-06-10T01:31:51.031Z,13.40
2023-06-10T01:34:19.413Z,13.30
2023-06-10T01:36:50.300Z,13.20
2023-06-10T01:39:18.396Z,13.20
2023-06-10T01:41:46.225Z,13.30
2023-06-10T01:44:14.055Z,13.40
2023-06-10T01:46:42.049Z,13.20
2023-06-10T01:49:09.939Z,13.30
2023-06-10T01:51:37.777Z,13.20
2023-06-10T01:54:07.716Z,13.20
2023-06-10T01:56:35.644Z,13.20
2023-06-10T01:59:03.805Z,13.30
2023-06-10T02:01:31.721Z,13.30
2023-06-10T02:03:59.626Z,13.10
2023-06-10T02:06:27.625Z,13.40
2023-06-10T02:08:55.477Z,13.40
2023-06-10T02:11:24.658Z,13.60
2023-06-10T02:13:52.765Z,13.30
2023-06-10T02:16:22.334Z,13.10
2023-06-10T02:18:50.643Z,13.00
2023-06-10T02:21:18.469Z,12.90
2023-06-10T02:23:46.346Z,12.90
2023-06-10T02:26:14.200Z,12.80
2023-06-10T02:28:45.973Z,12.80
2023-06-10T02:31:13.800Z,12.70
2023-06-10T02:33:41.806Z,12.80
2023-06-10T02:36:09.692Z,12.80
2023-06-10T02:38:37.554Z,12.70
2023-06-10T02:41:05.410Z,12.70
2023-06-10T02:43:33.260Z,12.70
2023-06-10T02:46:02.537Z,12.60
2023-06-10T02:48:30.469Z,12.60
2023-06-10T02:50:58.305Z,12.60
2023-06-10T02:53:26.144Z,12.40
2023-06-10T02:55:53.979Z,12.40
2023-06-10T02:58:22.107Z,12.40
2023-06-10T03:00:50.105Z,12.50
2023-06-10T03:03:19.561Z,12.40
2023-06-10T03:05:47.415Z,12.50
2023-06-10T03:08:15.329Z,12.40
2023-06-10T03:10:43.170Z,12.30
2023-06-10T03:13:11.621Z,12.20
2023-06-10T03:15:41.934Z,12.10
2023-06-10T03:18:10.047Z,12.10
2023-06-10T03:20:40.728Z,12.20
2023-06-10T03:23:08.602Z,12.10
2023-06-10T03:25:36.442Z,12.10
2023-06-10T03:28:04.386Z,12.10
2023-06-10T03:30:32.301Z,12.30
2023-06-10T03:33:00.241Z,12.30
2023-06-10T03:35:28.419Z,12.20
2023-06-10T03:37:57.627Z,12.20
2023-06-10T03:40:25.541Z,12.20
2023-06-10T03:42:53.379Z,12.40
2023-06-10T03:45:21.397Z,12.10
2023-06-10T03:47:49.568Z,12.10
2023-06-10T03:50:17.550Z,12.10
2023-06-10T03:52:46.569Z,12.10
2023-06-10T03:55:17.788Z,12.10
2023-06-10T03:57:45.659Z,12.10
2023-06-10T04:00:14.807Z,12.10
2023-06-10T04:02:46.843Z,12.10
2023-06-10T04:05:15.262Z,12.20
2023-06-10T04:07:43.581Z,12.20
2023-06-10T04:10:11.849Z,12.20
2023-06-10T04:12:41.226Z,12.30
2023-06-10T04:15:09.826Z,12.30
2023-06-10T04:17:38.002Z,12.40
2023-06-10T04:20:08.743Z,12.70
2023-06-10T04:22:37.494Z,12.70
2023-06-10T04:25:05.500Z,12.70
2023-06-10T04:27:33.352Z,12.80
2023-06-10T04:30:02.559Z,12.90
2023-06-10T04:32:30.609Z,12.90
2023-06-10T04:34:58.919Z,12.90
2023-06-10T04:37:26.790Z,12.90
2023-06-10T04:39:54.606Z,12.90
2023-06-10T04:42:22.445Z,12.90
2023-06-10T04:44:50.267Z,12.70
2023-06-10T04:47:19.451Z,12.70
2023-06-10T04:49:47.296Z,12.80
2023-06-10T04:52:16.867Z,12.80
2023-06-10T04:54:46.996Z,12.80
2023-06-10T04:57:14.819Z,12.90
2023-06-10T04:59:42.709Z,12.90
2023-06-10T05:02:10.567Z,12.90
2023-06-10T05:04:39.791Z,12.90
2023-06-10T05:07:07.844Z,12.90
2023-06-10T05:09:35.841Z,13.00
2023-06-10T05:12:04.080Z,13.20
2023-06-10T05:14:32.397Z,13.30
2023-06-10T05:17:00.249Z,13.30
2023-06-10T05:19:28.450Z,13.50
2023-06-10T05:21:57.640Z,13.50
2023-06-10T05:24:25.478Z,13.40
2023-06-10T05:26:53.417Z,13.50
2023-06-10T05:29:21.342Z,13.50
2023-06-10T05:31:49.236Z,13.60
2023-06-10T05:34:17.133Z,13.60
2023-06-10T05:36:44.995Z,13.70
2023-06-10T05:39:14.211Z,13.70
2023-06-10T05:41:42.044Z,13.90
2023-06-10T05:44:12.598Z,14.10
2023-06-10T05:46:42.007Z,13.90
2023-06-10T05:49:09.868Z,14.10
2023-06-10T05:51:38.680Z,14.30
2023-06-10T05:54:06.729Z,14.50
2023-06-10T05:56:35.877Z,14.60
2023-06-10T05:59:03.708Z,14.50
2023-06-10T06:01:31.750Z,14.50
2023-06-10T06:03:59.691Z,14.50
2023-06-10T06:06:27.558Z,14.60
2023-06-10T06:08:55.386Z,14.70
2023-06-10T06:11:23.235Z,14.80
2023-06-10T06:13:53.602Z,14.90
2023-06-10T06:16:22.068Z,14.90
2023-06-10T06:18:49.968Z,15.10
2023-06-10T06:21:17.803Z,15.10
2023-06-10T06:23:45.746Z,15.20
2023-06-10T06:26:13.619Z,15.30
2023-06-10T06:28:41.498Z,15.40
2023-06-10T06:31:10.843Z,15.40
2023-06-10T06:33:38.792Z,15.50
2023-06-10T06:36:07.070Z,15.60
2023-06-10T06:38:34.912Z,15.60
2023-06-10T06:41:04.463Z,15.70
2023-06-10T06:43:32.425Z,15.90
2023-06-10T06:46:00.256Z,16.00
2023-06-10T06:48:29.576Z,16.00
2023-06-10T06:50:59.436Z,16.00
2023-06-10T06:53:29.449Z,16.00
2023-06-10T06:55:58.854Z,16.10
2023-06-10T06:58:26.770Z,16.20
2023-06-10T07:00:54.668Z,16.20
2023-06-10T07:03:22.596Z,16.30
2023-06-10T07:05:51.870Z,16.40
2023-06-10T07:08:19.722Z,16.20
2023-06-10T07:10:47.569Z,16.30
2023-06-10T07:13:15.592Z,16.40
2023-06-10T07:15:43.482Z,16.60
2023-06-10T07:18:11.370Z,16.80
2023-06-10T07:20:39.229Z,16.90
2023-06-10T07:23:08.404Z,17.00
2023-06-10T07:25:36.225Z,17.00
2023-06-10T07:28:04.171Z,17.20
2023-06-10T07:30:31.984Z,17.30
2023-06-10T07:33:00.035Z,17.30
2023-06-10T07:35:27.925Z,17.40
2023-06-10T07:37:55.774Z,17.50
2023-06-10T07:40:25.965Z,17.80
2023-06-10T07:42:54.896Z,17.90
2023-06-10T07:45:22.918Z,18.10
2023-06-10T07:47:51.366Z,18.10
2023-06-10T07:50:19.398Z,18.20
2023-06-10T07:52:47.226Z,18.40
2023-06-10T07:55:15.060Z,18.70
2023-06-10T07:57:44.292Z,19.00
2023-06-10T08:00:12.968Z,19.20
2023-06-10T08:02:41.019Z,19.30
2023-06-10T08:05:09.744Z,19.50
2023-06-10T08:07:37.871Z,19.80
2023-06-10T08:10:06.386Z,20.20
2023-06-10T08:12:34.257Z,20.70
2023-06-10T08:15:05.144Z,21.00
2023-06-10T08:17:33.095Z,21.10
2023-06-10T08:20:01.050Z,21.60
2023-06-10T08:22:29.956Z,21.90
2023-06-10T08:24:58.153Z,22.30
2023-06-10T08:27:26.044Z,22.60
2023-06-10T08:29:53.918Z,22.80
2023-06-10T08:32:23.195Z,22.90
2023-06-10T08:34:51.153Z,23.10
2023-06-10T08:37:18.982Z,23.30
2023-06-10T08:39:46.814Z,23.40
2023-06-10T08:42:19.877Z,23.50
2023-06-10T08:44:47.857Z,23.70
2023-06-10T08:47:16.197Z,23.50
2023-06-10T08:49:46.615Z,23.70
2023-06-10T08:52:16.826Z,24.00
2023-06-10T08:54:45.388Z,24.20
2023-06-10T08:57:13.253Z,24.20
2023-06-10T08:59:41.099Z,24.40
2023-06-10T09:02:09.035Z,24.40
2023-06-10T09:04:37.294Z,24.40
2023-06-10T09:07:07.188Z,24.60
2023-06-10T09:09:35.024Z,24.60
2023-06-10T09:12:02.920Z,24.80
2023-06-10T09:14:30.770Z,25.00
2023-06-10T09:16:59.021Z,25.20
2023-06-10T09:19:27.198Z,25.10
2023-06-10T09:21:55.008Z,25.20
2023-06-10T09:24:24.724Z,25.40
2023-06-10T09:26:52.681Z,25.40
2023-06-10T09:29:20.497Z,25.30
2023-06-10T09:31:48.409Z,25.50
2023-06-10T09:34:17.706Z,26.00
2023-06-10T09:36:45.606Z,25.40
2023-06-10T09:39:17.580Z,25.30
2023-06-10T09:41:47.346Z,25.60
2023-06-10T09:44:16.276Z,26.00
2023-06-10T09:46:44.208Z,25.90
2023-06-10T09:49:12.056Z,26.10
2023-06-10T09:51:39.920Z,26.20
2023-06-10T09:54:07.783Z,26.60
2023-06-10T09:56:36.399Z,26.80
2023-06-10T09:59:07.306Z,26.30
2023-06-10T10:01:35.473Z,25.60
2023-06-10T10:04:03.496Z,26.00
2023-06-10T10:06:31.430Z,25.90
2023-06-10T10:08:59.328Z,25.90
2023-06-10T10:11:28.144Z,25.90
2023-06-10T10:13:56.040Z,25.80
2023-06-10T10:16:40.436Z,26.50
2023-06-10T10:19:10.030Z,25.90
2023-06-10T10:21:54.493Z,25.80
2023-06-10T10:24:23.581Z,26.10
2023-06-10T10:26:52.632Z,26.60
2023-06-10T10:29:26.932Z,26.80
2023-06-10T10:31:56.239Z,26.50
2023-06-10T10:34:26.863Z,26.70
2023-06-10T10:36:54.723Z,26.70
2023-06-10T10:39:22.729Z,26.50
2023-06-10T10:41:50.593Z,26.50
2023-06-10T10:44:18.565Z,26.00
2023-06-10T10:46:46.606Z,25.60
2023-06-10T10:49:16.048Z,25.30
2023-06-10T10:51:57.536Z,25.10
2023-06-10T10:54:34.985Z,24.90
2023-06-10T10:57:13.095Z,24.70
2023-06-10T10:59:48.241Z,24.60
2023-06-10T11:02:19.542Z,24.40
2023-06-10T11:04:49.573Z,24.70
2023-06-10T11:07:17.735Z,25.40
2023-06-10T11:10:00.483Z,25.90
2023-06-10T11:12:28.369Z,25.90
2023-06-10T11:14:57.202Z,26.20
2023-06-10T11:17:25.454Z,26.20
2023-06-10T11:19:54.702Z,26.10
2023-06-10T11:22:22.523Z,26.40
2023-06-10T11:24:51.107Z,26.40
2023-06-10T11:27:20.337Z,25.90
2023-06-10T11:30:00.837Z,25.40
2023-06-10T11:32:36.509Z,24.90
2023-06-10T11:35:07.507Z,24.80
2023-06-10T11:37:35.556Z,24.70
2023-06-10T11:40:03.468Z,24.70
2023-06-10T11:42:31.337Z,25.10
2023-06-10T11:44:59.179Z,25.50
2023-06-10T11:47:27.907Z,25.90
2023-06-10T11:49:58.211Z,26.00
2023-06-10T11:52:30.680Z,26.80
2023-06-10T11:54:58.612Z,26.70
2023-06-10T11:57:26.460Z,26.10
2023-06-10T11:59:54.381Z,25.60
2023-06-10T12:02:23.477Z,25.80
2023-06-10T12:04:51.533Z,25.80
2023-06-10T12:07:20.211Z,25.60
2023-06-10T12:09:49.377Z,25.40
2023-06-10T12:12:18.407Z,25.50
2023-06-10T12:14:54.417Z,25.40
2023-06-10T12:17:23.890Z,25.70
2023-06-10T12:19:51.851Z,25.50
2023-06-10T12:22:20.451Z,25.20
2023-06-10T12:25:00.608Z,25.20
2023-06-10T12:27:30.897Z,24.80
2023-06-10T12:30:01.658Z,24.50
2023-06-10T12:32:38.172Z,24.20
2023-06-10T12:35:06.899Z,24.40
2023-06-10T12:37:35.576Z,24.30
2023-06-10T12:40:05.250Z,24.40
2023-06-10T12:42:34.614Z,24.40
2023-06-10T12:45:02.526Z,24.40
2023-06-10T12:47:34.039Z,24.30
2023-06-10T12:50:02.053Z,24.50
2023-06-10T12:52:30.022Z,25.00
2023-06-10T12:54:57.929Z,25.60
2023-06-10T12:57:27.202Z,25.90
2023-06-10T12:59:55.282Z,25.80
2023-06-10T13:02:25.032Z,25.60
2023-06-10T13:04:53.293Z,25.20
2023-06-10T13:07:21.242Z,25.00
2023-06-10T13:09:50.344Z,24.80
2023-06-10T13:12:24.814Z,24.80
2023-06-10T13:14:56.713Z,24.70
2023-06-10T13:17:24.647Z,24.60
2023-06-10T13:19:52.843Z,24.50
2023-06-10T13:22:21.263Z,24.50
2023-06-10T13:24:49.112Z,24.30
2023-06-10T13:27:16.970Z,24.20
2023-06-10T13:29:44.804Z,24.20
2023-06-10T13:32:14.002Z,24.20
2023-06-10T13:34:41.854Z,24.10
2023-06-10T13:37:09.662Z,24.20
2023-06-10T13:39:37.504Z,24.40
2023-06-10T13:42:05.810Z,24.90
2023-06-10T13:44:34.708Z,25.10
2023-06-10T13:47:02.656Z,25.40
2023-06-10T13:49:31.942Z,25.60
2023-06-10T13:51:59.819Z,25.70
2023-06-10T13:54:28.194Z,25.60
2023-06-10T13:56:56.077Z,25.10
2023-06-10T13:59:23.963Z,25.00
2023-06-10T14:01:51.841Z,24.90
2023-06-10T14:04:19.772Z,24.80
2023-06-10T14:06:49.204Z,24.70
2023-06-10T14:09:17.368Z,24.70
2023-06-10T14:11:45.214Z,24.70
2023-06-10T14:14:13.063Z,24.70
2023-06-10T14:16:43.443Z,24.70
2023-06-10T14:19:12.109Z,24.60
2023-06-10T14:21:39.980Z,24.50
2023-06-10T14:24:09.426Z,24.50
2023-06-10T14:26:37.284Z,24.40
2023-06-10T14:29:05.140Z,24.40
2023-06-10T14:31:33.057Z,24.10
2023-06-10T14:34:01.010Z,23.90
2023-06-10T14:36:28.869Z,23.90
2023-06-10T14:38:58.068Z,23.90
2023-06-10T14:41:27.350Z,24.00
2023-06-10T14:43:55.257Z,24.10
2023-06-10T14:46:23.458Z,24.10
2023-06-10T14:48:52.219Z,24.20
2023-06-10T14:51:21.233Z,24.20
2023-06-10T14:53:49.073Z,24.20
2023-06-10T14:56:16.894Z,24.20
2023-06-10T14:58:46.084Z,24.20
2023-06-10T15:01:13.948Z,24.10
2023-06-10T15:03:41.922Z,24.00
2023-06-10T15:06:09.765Z,24.00
2023-06-10T15:08:37.868Z,24.10
2023-06-10T15:11:05.655Z,24.00
2023-06-10T15:13:33.566Z,24.20
2023-06-10T15:16:04.146Z,24.40
2023-06-10T15:18:32.172Z,24.20
2023-06-10T15:20:59.949Z,24.20
2023-06-10T15:23:27.767Z,24.40
2023-06-10T15:25:55.598Z,24.20
2023-06-10T15:28:23.790Z,24.00
2023-06-10T15:30:52.670Z,23.90
2023-06-10T15:33:21.918Z,24.10
2023-06-10T15:35:49.816Z,24.10
2023-06-10T15:38:17.694Z,24.00
2023-06-10T15:40:45.515Z,23.90
2023-06-10T15:43:14.588Z,24.00
2023-06-10T15:45:42.461Z,24.00
2023-06-10T15:48:10.390Z,23.80
2023-06-10T15:50:39.565Z,23.70
2023-06-10T15:53:07.405Z,23.70
2023-06-10T15:55:35.229Z,23.70
2023-06-10T15:58:04.919Z,23.80
2023-06-10T16:00:32.875Z,23.60
2023-06-10T16:03:01.277Z,23.80
2023-06-10T16:05:29.414Z,23.80
2023-06-10T16:08:00.478Z,23.90
2023-06-10T16:10:30.700Z,24.00
2023-06-10T16:12:58.796Z,24.00
2023-06-10T16:15:26.693Z,23.90
2023-06-10T16:17:54.841Z,23.80
2023-06-10T16:20:22.806Z,23.80
2023-06-10T16:22:50.696Z,23.60
2023-06-10T16:25:20.095Z,23.60
2023-06-10T16:27:47.964Z,23.60
2023-06-10T16:30:16.246Z,23.60
2023-06-10T16:32:44.102Z,23.50
2023-06-10T16:35:12.196Z,23.50
2023-06-10T16:37:40.777Z,23.30
2023-06-10T16:40:09.638Z,23.30
2023-06-10T16:42:38.871Z,23.20
2023-06-10T16:45:08.019Z,23.20
2023-06-10T16:47:36.205Z,23.20
2023-06-10T16:50:04.499Z,23.20
2023-06-10T16:52:32.415Z,23.30
2023-06-10T16:55:00.364Z,23.30
2023-06-10T16:57:28.219Z,23.30
2023-06-10T16:59:57.426Z,23.30
2023-06-10T17:02:27.044Z,23.20
2023-06-10T17:04:55.007Z,23.20
2023-06-10T17:07:22.836Z,23.20
2023-06-10T17:09:50.658Z,23.00
2023-06-10T17:12:18.512Z,22.90
2023-06-10T17:14:46.362Z,22.80
2023-06-10T17:17:15.701Z,22.70
2023-06-10T17:19:43.560Z,22.60
2023-06-10T17:22:11.588Z,22.70
2023-06-10T17:24:39.539Z,22.70
2023-06-10T17:27:07.680Z,22.70
2023-06-10T17:29:35.626Z,22.70
2023-06-10T17:32:03.574Z,22.70
2023-06-10T17:34:33.045Z,22.60
2023-06-10T17:37:00.893Z,22.60
2023-06-10T17:39:28.686Z,22.50
2023-06-10T17:41:56.539Z,22.30
2023-06-10T17:44:25.474Z,22.30
2023-06-10T17:46:53.749Z,22.10
2023-06-10T17:49:30.956Z,22.00
2023-06-10T17:52:01.699Z,22.00
2023-06-10T17:54:29.584Z,22.10
2023-06-10T17:56:57.417Z,22.00
2023-06-10T17:59:36.142Z,22.00
2023-06-10T18:02:04.500Z,22.00
2023-06-10T18:04:32.430Z,21.90
2023-06-10T18:07:02.181Z,21.70
2023-06-10T18:09:30.163Z,21.80
2023-06-10T18:11:57.993Z,21.60
2023-06-10T18:14:26.038Z,21.60
2023-06-10T18:16:53.914Z,21.70
2023-06-10T18:19:22.988Z,21.60
2023-06-10T18:21:50.896Z,21.50
2023-06-10T18:24:22.096Z,21.50
2023-06-10T18:26:50.274Z,21.40
2023-06-10T18:29:18.168Z,21.40
2023-06-10T18:31:46.048Z,21.40
2023-06-10T18:34:14.001Z,21.30
2023-06-10T18:36:41.828Z,21.20
2023-06-10T18:39:09.691Z,21.20
2023-06-10T18:41:39.278Z,21.20
2023-06-10T18:44:07.108Z,21.20
2023-06-10T18:46:34.935Z,21.20
2023-06-10T18:49:02.774Z,21.10
2023-06-10T18:51:30.737Z,21.10
2023-06-10T18:53:58.554Z,21.10
2023-06-10T18:56:26.419Z,21.00
2023-06-10T18:58:55.575Z,21.00
2023-06-10T19:01:23.498Z,21.00
2023-06-10T19:03:51.503Z,20.90
2023-06-10T19:06:19.396Z,20.90
2023-06-10T19:08:47.442Z,20.70
2023-06-10T19:11:15.339Z,20.70
2023-06-10T19:13:43.157Z,20.70
2023-06-10T19:16:12.347Z,20.70
2023-06-10T19:18:40.196Z,20.60
2023-06-10T19:21:08.485Z,20.50
2023-06-10T19:23:37.275Z,20.50
2023-06-10T19:26:05.512Z,20.50
2023-06-10T19:28:33.342Z,20.50
2023-06-10T19:31:01.171Z,20.40
2023-06-10T19:33:30.318Z,20.40
2023-06-10T19:35:58.191Z,20.30
2023-06-10T19:38:25.999Z,20.20
2023-06-10T19:40:53.834Z,20.20
2023-06-10T19:43:21.696Z,20.10
2023-06-10T19:45:49.533Z,20.00
2023-06-10T19:48:17.435Z,20.10
2023-06-10T19:50:46.686Z,20.10
2023-06-10T19:53:14.506Z,20.00
2023-06-10T19:55:42.326Z,19.90
2023-06-10T19:58:10.146Z,19.90
2023-06-10T20:00:38.033Z,19.90
2023-06-10T20:03:06.009Z,19.90
2023-06-10T20:05:34.210Z,19.90
2023-06-10T20:08:03.394Z,19.80
2023-06-10T20:10:31.235Z,19.90
2023-06-10T20:12:59.053Z,19.90
2023-06-10T20:15:26.866Z,19.90
2023-06-10T20:17:54.795Z,19.80
2023-06-10T20:20:22.876Z,19.60
2023-06-10T20:22:50.703Z,19.70
2023-06-10T20:25:19.942Z,19.60
2023-06-10T20:27:47.867Z,19.60
2023-06-10T20:30:16.068Z,19.60
2023-06-10T20:32:43.906Z,19.40
2023-06-10T20:35:12.003Z,19.30
2023-06-10T20:37:40.122Z,19.40
2023-06-10T20:40:09.026Z,19.40
2023-06-10T20:42:38.297Z,19.20
2023-06-10T20:45:07.724Z,19.20
2023-06-10T20:47:36.110Z,19.20
2023-06-10T20:50:04.148Z,19.10
2023-06-10T20:52:32.005Z,19.10
2023-06-10T20:54:59.865Z,19.10
2023-06-10T20:57:27.736Z,19.00
2023-06-10T20:59:57.581Z,18.90
2023-06-10T21:02:25.495Z,18.80
2023-06-10T21:04:53.403Z,18.90
2023-06-10T21:07:22.259Z,18.90
2023-06-10T21:09:50.106Z,18.80
2023-06-10T21:12:18.021Z,18.70
2023-06-10T21:14:45.867Z,18.70
2023-06-10T21:17:15.205Z,18.70
2023-06-10T21:19:43.170Z,18.60
2023-06-10T21:22:11.083Z,18.60
2023-06-10T21:24:38.940Z,18.50
2023-06-10T21:27:08.626Z,18.40
2023-06-10T21:29:36.951Z,18.30
2023-06-10T21:32:05.832Z,18.30
2023-06-10T21:34:35.018Z,18.20
2023-06-10T21:37:02.880Z,18.30
2023-06-10T21:39:30.818Z,18.30
2023-06-10T21:41:58.627Z,18.20
2023-06-10T21:44:26.455Z,18.10
2023-06-10T21:46:54.299Z,18.10
2023-06-10T21:49:22.183Z,18.10
2023-06-10T21:51:51.544Z,18.10
2023-06-10T21:54:19.487Z,17.80
2023-06-10T21:56:49.316Z,17.90
2023-06-10T21:59:18.850Z,17.80
2023-06-10T22:01:46.726Z,17.70
2023-06-10T22:04:14.879Z,17.70
2023-06-10T22:06:42.777Z,17.70
2023-06-10T22:09:12.118Z,17.80
2023-06-10T22:11:39.971Z,17.80
2023-06-10T22:14:08.199Z,17.80
2023-06-10T22:16:36.054Z,17.90
2023-06-10T22:19:04.015Z,17.80
2023-06-10T22:21:31.863Z,17.80
2023-06-10T22:23:59.877Z,17.70
2023-06-10T22:26:43.655Z,17.70
2023-06-10T22:29:19.672Z,17.70
2023-06-10T22:31:47.787Z,17.70
2023-06-10T22:34:15.971Z,17.60
2023-06-10T22:36:43.805Z,17.60
2023-06-10T22:39:13.509Z,17.50
2023-06-10T22:41:43.170Z,17.50
2023-06-10T22:44:11.015Z,17.40
2023-06-10T22:46:38.833Z,17.50
2023-06-10T22:49:06.656Z,17.50
2023-06-10T22:51:34.699Z,17.30
2023-06-10T22:54:02.529Z,17.20
2023-06-10T22:56:30.534Z,17.40
2023-06-10T22:59:03.317Z,17.50
2023-06-10T23:01:31.692Z,17.50
2023-06-10T23:03:59.624Z,17.20
2023-06-10T23:06:27.482Z,17.30
2023-06-10T23:08:55.302Z,17.20
2023-06-10T23:11:23.137Z,17.20
2023-06-10T23:13:51.183Z,17.10
2023-06-10T23:16:20.445Z,16.90
2023-06-10T23:18:49.308Z,17.00
2023-06-10T23:21:19.886Z,17.00
2023-06-10T23:23:52.545Z,17.10
2023-06-10T23:26:20.638Z,17.00
2023-06-10T23:28:48.470Z,17.00
2023-06-10T23:31:16.319Z,17.00
2023-06-10T23:33:46.949Z,17.00
2023-06-10T23:36:15.060Z,17.00
2023-06-10T23:38:42.949Z,16.90
2023-06-10T23:41:10.795Z,16.80
2023-06-10T23:43:38.651Z,16.80
2023-06-10T23:46:07.875Z,16.90
2023-06-10T23:48:36.258Z,16.70
2023-06-10T23:51:06.384Z,16.70
2023-06-10T23:53:34.228Z,16.70
2023-06-10T23:56:02.577Z,16.70
2023-06-10T23:58:31.056Z,16.70
